createdAt,value
2018-06-19T00:00:25.233Z,34.30
2018-06-19T00:02:58.410Z,35.00
2018-06-19T00:05:32.275Z,34.47
2018-06-19T00:08:04.618Z,35.42
2018-06-19T00:10:38.472Z,35.09
2018-06-19T00:13:10.810Z,35.88
2018-06-19T00:15:43.629Z,35.72
2018-06-19T00:18:33.473Z,35.66
2018-06-19T00:21:10.178Z,36.55
2018-06-19T00:23:43.006Z,35.52
2018-06-19T00:26:15.818Z,35.97
2018-06-19T00:28:49.986Z,35.77
2018-06-19T00:31:22.724Z,35.85
2018-06-19T00:33:55.605Z,36.38
2018-06-19T00:36:28.992Z,36.45
2018-06-19T00:39:01.091Z,37.19
2018-06-19T00:41:33.739Z,36.67
2018-06-19T00:44:06.448Z,36.36
2018-06-19T00:46:40.328Z,36.27
2018-06-19T00:49:13.409Z,35.72
2018-06-19T00:51:46.175Z,33.38
2018-06-19T00:54:18.960Z,33.03
2018-06-19T00:57:00.614Z,35.66
2018-06-19T00:59:33.682Z,34.77
2018-06-19T01:02:06.501Z,34.97
2018-06-19T01:04:39.042Z,35.15
2018-06-19T01:07:11.984Z,35.87
2018-06-19T01:09:44.652Z,34.86
2018-06-19T01:12:17.236Z,35.51
2018-06-19T01:14:49.719Z,35.14
2018-06-19T01:17:22.812Z,35.44
2018-06-19T01:19:55.889Z,35.26
2018-06-19T01:22:28.457Z,35.01
2018-06-19T01:25:00.932Z,35.01
2018-06-19T01:27:34.459Z,35.97
2018-06-19T01:30:06.705Z,35.44
2018-06-19T01:32:39.867Z,34.75
2018-06-19T01:35:11.954Z,35.18
2018-06-19T01:37:45.113Z,35.50
2018-06-19T01:40:17.589Z,36.50
2018-06-19T01:42:49.769Z,35.43
2018-06-19T01:45:23.016Z,36.89
2018-06-19T01:47:56.295Z,35.81
2018-06-19T01:50:28.673Z,35.56
2018-06-19T01:53:01.927Z,36.74
2018-06-19T01:55:35.236Z,35.58
2018-06-19T01:58:07.806Z,35.83
2018-06-19T02:00:39.601Z,35.78
2018-06-19T02:03:12.579Z,36.70
2018-06-19T02:05:45.997Z,36.94
2018-06-19T02:08:18.611Z,37.34
2018-06-19T02:10:51.305Z,37.03
2018-06-19T02:13:24.632Z,36.08
2018-06-19T02:15:57.200Z,36.97
2018-06-19T02:18:29.313Z,36.21
2018-06-19T02:21:01.410Z,37.03
2018-06-19T02:23:33.614Z,36.40
2018-06-19T02:26:06.587Z,37.47
2018-06-19T02:28:40.211Z,36.49
2018-06-19T02:31:12.917Z,36.45
2018-06-19T02:33:45.575Z,36.20
2018-06-19T02:36:18.369Z,37.22
2018-06-19T02:38:50.513Z,36.86
2018-06-19T02:41:23.457Z,36.30
2018-06-19T02:43:55.991Z,37.23
2018-06-19T02:46:29.617Z,37.08
2018-06-19T02:49:03.049Z,36.95
2018-06-19T02:51:35.563Z,35.98
2018-06-19T02:54:08.223Z,36.63
2018-06-19T02:56:41.127Z,36.24
2018-06-19T02:59:13.941Z,35.51
2018-06-19T03:01:47.191Z,36.50
2018-06-19T03:04:20.377Z,36.08
2018-06-19T03:06:53.191Z,36.53
2018-06-19T03:09:26.164Z,36.44
2018-06-19T03:11:58.668Z,35.79
2018-06-19T03:14:31.341Z,37.25
2018-06-19T03:17:04.259Z,36.97
2018-06-19T03:19:36.860Z,36.47
2018-06-19T03:22:08.773Z,36.21
2018-06-19T03:24:42.092Z,36.85
2018-06-19T03:27:15.042Z,36.97
2018-06-19T03:29:47.593Z,36.70
2018-06-19T03:32:19.754Z,35.11
2018-06-19T03:34:52.644Z,36.23
2018-06-19T03:37:24.895Z,37.16
2018-06-19T03:39:58.063Z,37.12
2018-06-19T03:42:31.115Z,36.80
2018-06-19T03:45:03.451Z,36.20
2018-06-19T03:47:36.601Z,36.15
2018-06-19T03:50:10.000Z,35.63
2018-06-19T03:52:42.381Z,35.33
2018-06-19T03:55:15.192Z,36.27
2018-06-19T03:57:47.534Z,36.45
2018-06-19T04:00:20.246Z,35.74
2018-06-19T04:02:52.381Z,36.51
2018-06-19T04:05:25.408Z,36.78
2018-06-19T04:07:57.713Z,35.73
2018-06-19T04:10:30.810Z,35.73
2018-06-19T04:13:03.997Z,35.84
2018-06-19T04:15:37.069Z,35.96
2018-06-19T04:18:09.969Z,36.69
2018-06-19T04:20:42.197Z,35.73
2018-06-19T04:23:13.890Z,35.84
2018-06-19T04:25:46.612Z,34.98
2018-06-19T04:28:19.372Z,34.89
2018-06-19T04:30:51.622Z,35.20
2018-06-19T04:33:23.874Z,35.53
2018-06-19T04:35:56.078Z,35.23
2018-06-19T04:38:28.992Z,34.69
2018-06-19T04:41:02.031Z,34.55
2018-06-19T04:43:36.127Z,33.97
2018-06-19T04:46:09.243Z,33.97
2018-06-19T04:48:42.063Z,35.18
2018-06-19T04:51:14.882Z,37.05
2018-06-19T04:53:47.802Z,36.98
2018-06-19T04:56:20.332Z,36.46
2018-06-19T04:58:52.901Z,35.49
2018-06-19T05:01:25.779Z,36.37
2018-06-19T05:03:58.108Z,35.49
2018-06-19T05:06:31.428Z,36.70
2018-06-19T05:09:03.719Z,36.12
2018-06-19T05:11:36.768Z,36.60
2018-06-19T05:14:09.319Z,35.99
2018-06-19T05:16:42.780Z,36.72
2018-06-19T05:19:14.844Z,35.75
2018-06-19T05:21:47.959Z,36.10
2018-06-19T05:24:20.308Z,36.74
2018-06-19T05:26:52.385Z,35.19
2018-06-19T05:29:25.388Z,35.95
2018-06-19T05:31:58.065Z,35.91
2018-06-19T05:34:31.173Z,34.79
2018-06-19T05:37:03.825Z,34.46
2018-06-19T05:39:37.157Z,34.89
2018-06-19T05:42:10.399Z,34.23
2018-06-19T05:44:43.085Z,34.71
2018-06-19T05:47:15.205Z,34.79
2018-06-19T05:49:47.758Z,35.07
2018-06-19T05:52:20.505Z,34.56
2018-06-19T05:54:53.090Z,34.39
2018-06-19T05:57:26.612Z,34.39
2018-06-19T05:59:59.039Z,33.85
2018-06-19T06:02:32.339Z,33.87
2018-06-19T06:05:04.408Z,34.74
2018-06-19T06:07:36.703Z,34.32
2018-06-19T06:10:09.409Z,33.65
2018-06-19T06:12:42.197Z,34.39
2018-06-19T06:15:17.124Z,34.91
2018-06-19T06:17:50.008Z,34.55
2018-06-19T06:20:23.143Z,34.63
2018-06-19T06:22:56.482Z,35.08
2018-06-19T06:25:28.792Z,34.13
2018-06-19T06:28:02.150Z,33.71
2018-06-19T06:30:34.457Z,33.53
2018-06-19T06:33:07.804Z,33.98
2018-06-19T06:35:40.001Z,34.36
2018-06-19T06:38:13.865Z,33.38
2018-06-19T06:40:46.908Z,34.60
2018-06-19T06:43:22.142Z,33.37
2018-06-19T06:45:55.015Z,33.48
2018-06-19T06:48:28.012Z,34.44
2018-06-19T06:51:00.581Z,33.92
2018-06-19T06:53:33.628Z,34.56
2018-06-19T06:56:06.977Z,33.83
2018-06-19T06:58:43.557Z,35.03
2018-06-19T07:01:16.427Z,34.50
2018-06-19T07:03:49.559Z,35.09
2018-06-19T07:06:23.051Z,34.13
2018-06-19T07:08:55.323Z,33.89
2018-06-19T07:11:29.409Z,34.14
2018-06-19T07:14:02.158Z,34.40
2018-06-19T07:16:39.388Z,34.37
2018-06-19T07:19:11.599Z,33.72
2018-06-19T07:21:44.634Z,33.88
2018-06-19T07:24:16.878Z,33.48
2018-06-19T07:26:49.606Z,33.47
2018-06-19T07:29:22.017Z,34.47
2018-06-19T07:31:54.964Z,33.42
2018-06-19T07:34:27.721Z,33.23
2018-06-19T07:37:02.216Z,33.89
2018-06-19T07:39:35.219Z,33.17
2018-06-19T07:42:08.624Z,33.28
2018-06-19T07:44:42.469Z,33.46
2018-06-19T07:47:15.322Z,33.59
2018-06-19T07:49:48.467Z,33.05
2018-06-19T07:52:22.599Z,33.07
2018-06-19T07:54:57.040Z,32.35
2018-06-19T07:57:29.831Z,32.35
2018-06-19T08:00:10.049Z,32.38
2018-06-19T08:02:44.558Z,33.18
2018-06-19T08:05:20.025Z,33.27
2018-06-19T08:07:52.185Z,33.86
2018-06-19T08:10:26.238Z,33.20
2018-06-19T08:12:59.530Z,33.03
2018-06-19T08:15:33.254Z,33.18
2018-06-19T08:18:07.750Z,33.50
2018-06-19T08:20:41.090Z,32.93
2018-06-19T08:23:13.468Z,32.53
2018-06-19T08:25:46.345Z,32.48
2018-06-19T08:28:20.466Z,32.39
2018-06-19T08:30:56.798Z,31.74
2018-06-19T08:33:29.835Z,31.95
2018-06-19T08:36:03.584Z,32.20
2018-06-19T08:38:36.280Z,31.72
2018-06-19T08:41:10.278Z,30.99
2018-06-19T08:43:44.151Z,32.26
2018-06-19T08:46:19.322Z,31.50
2018-06-19T08:48:52.568Z,30.32
2018-06-19T08:51:25.039Z,30.42
2018-06-19T08:53:59.563Z,30.32
2018-06-19T08:56:31.801Z,28.40
2018-06-19T08:59:04.651Z,28.94
2018-06-19T09:01:38.170Z,27.86
2018-06-19T09:04:12.383Z,28.00
2018-06-19T09:06:46.416Z,27.91
2018-06-19T09:09:23.714Z,27.30
2018-06-19T09:11:57.866Z,28.22
2018-06-19T09:14:33.238Z,28.56
2018-06-19T09:17:06.794Z,28.53
2018-06-19T09:19:40.540Z,27.68
2018-06-19T09:22:13.922Z,26.85
2018-06-19T09:24:46.747Z,26.90
2018-06-19T09:27:19.755Z,27.00
2018-06-19T09:29:53.915Z,26.32
2018-06-19T09:32:26.458Z,26.62
2018-06-19T09:34:59.110Z,25.98
2018-06-19T09:37:31.838Z,26.28
2018-06-19T09:40:05.690Z,27.44
2018-06-19T09:42:38.457Z,26.32
2018-06-19T09:45:10.709Z,26.54
2018-06-19T09:47:43.946Z,26.97
2018-06-19T09:50:16.786Z,26.64
2018-06-19T09:52:49.480Z,26.41
2018-06-19T09:55:22.360Z,27.21
2018-06-19T09:57:55.331Z,27.44
2018-06-19T10:00:36.177Z,27.62
2018-06-19T10:03:11.209Z,27.79
2018-06-19T10:05:44.303Z,27.39
2018-06-19T10:08:17.657Z,26.82
2018-06-19T10:10:50.162Z,26.75
2018-06-19T10:13:22.993Z,26.98
2018-06-19T10:15:56.063Z,27.21
2018-06-19T10:18:28.362Z,26.69
2018-06-19T10:21:00.987Z,26.92
2018-06-19T10:23:33.601Z,26.38
2018-06-19T10:26:07.139Z,26.31
2018-06-19T10:28:39.671Z,26.80
2018-06-19T10:31:12.507Z,26.02
2018-06-19T10:33:45.742Z,26.78
2018-06-19T10:36:18.328Z,28.28
2018-06-19T10:38:50.515Z,29.14
2018-06-19T10:41:23.687Z,29.30
2018-06-19T10:43:56.121Z,30.10
2018-06-19T10:46:28.651Z,30.07
2018-06-19T10:49:02.402Z,30.14
2018-06-19T10:51:34.967Z,29.74
2018-06-19T10:54:07.917Z,29.45
2018-06-19T10:56:43.806Z,29.30
2018-06-19T10:59:16.945Z,28.17
2018-06-19T11:01:49.726Z,28.44
2018-06-19T11:04:22.869Z,28.67
2018-06-19T11:06:55.289Z,28.32
2018-06-19T11:09:29.006Z,27.85
2018-06-19T11:12:01.980Z,28.02
2018-06-19T11:14:33.931Z,28.33
2018-06-19T11:17:06.984Z,28.96
2018-06-19T11:19:38.927Z,28.32
2018-06-19T11:22:11.046Z,27.70
2018-06-19T11:24:43.676Z,27.10
2018-06-19T11:27:16.708Z,27.78
2018-06-19T11:29:49.490Z,26.61
2018-06-19T11:32:22.487Z,26.22
2018-06-19T11:34:55.731Z,26.01
2018-06-19T11:37:28.210Z,26.96
2018-06-19T11:40:00.815Z,26.90
2018-06-19T11:42:33.178Z,26.06
2018-06-19T11:45:06.012Z,26.63
2018-06-19T11:47:38.322Z,26.52
2018-06-19T11:50:10.897Z,25.66
2018-06-19T11:52:43.603Z,26.29
2018-06-19T11:55:16.514Z,26.57
2018-06-19T11:57:49.623Z,26.05
2018-06-19T12:00:22.584Z,26.35
2018-06-19T12:02:55.986Z,25.87
2018-06-19T12:05:28.576Z,25.12
2018-06-19T12:08:02.666Z,26.17
2018-06-19T12:10:36.254Z,25.60
2018-06-19T12:13:09.011Z,26.16
2018-06-19T12:15:42.972Z,25.40
2018-06-19T12:18:15.685Z,25.50
2018-06-19T12:20:48.246Z,25.88
2018-06-19T12:23:21.032Z,26.05
2018-06-19T12:25:53.990Z,25.90
2018-06-19T12:28:26.612Z,25.28
2018-06-19T12:30:59.862Z,26.21
2018-06-19T12:33:32.919Z,25.26
2018-06-19T12:36:06.391Z,26.00
2018-06-19T12:38:39.467Z,24.37
2018-06-19T12:41:12.523Z,25.74
2018-06-19T12:43:45.395Z,25.31
2018-06-19T12:46:17.947Z,25.26
2018-06-19T12:48:51.014Z,25.19
2018-06-19T12:52:00.000Z,24.93
2018-06-19T12:54:49.952Z,25.74
2018-06-19T12:57:23.104Z,24.90
2018-06-19T12:59:55.091Z,24.47
2018-06-19T13:02:27.857Z,25.67
2018-06-19T13:05:09.506Z,25.62
2018-06-19T13:07:45.126Z,25.31
2018-06-19T13:10:18.176Z,26.17
2018-06-19T13:13:29.407Z,25.90
2018-06-19T13:16:03.783Z,25.35
2018-06-19T13:18:45.576Z,26.04
2018-06-19T13:21:18.151Z,26.25
2018-06-19T13:23:52.010Z,25.45
2018-06-19T13:26:24.355Z,26.69
2018-06-19T13:30:05.348Z,26.60
2018-06-19T13:32:38.512Z,26.52
2018-06-19T13:35:11.370Z,26.03
2018-06-19T13:37:43.429Z,26.91
2018-06-19T13:41:26.681Z,26.32
2018-06-19T13:44:14.710Z,26.29
2018-06-19T13:46:48.067Z,26.22
2018-06-19T13:49:19.807Z,26.59
2018-06-19T13:51:52.676Z,26.93
2018-06-19T13:54:25.250Z,27.72
2018-06-19T13:57:16.512Z,26.78
2018-06-19T13:59:48.828Z,26.59
2018-06-19T14:02:22.006Z,28.03
2018-06-19T14:04:55.253Z,27.32
2018-06-19T14:07:28.690Z,28.04
2018-06-19T14:10:10.545Z,28.02
2018-06-19T14:13:04.339Z,27.52
2018-06-19T14:15:39.290Z,27.75
2018-06-19T14:18:13.197Z,27.85
2018-06-19T14:20:46.315Z,27.45
2018-06-19T14:23:19.649Z,27.85
2018-06-19T14:25:52.041Z,28.03
2018-06-19T14:28:24.527Z,27.98
2018-06-19T14:30:56.829Z,28.31
2018-06-19T14:33:30.340Z,28.43
2018-06-19T14:36:02.261Z,28.40
2018-06-19T14:38:35.467Z,27.92
2018-06-19T14:41:08.327Z,28.27
2018-06-19T14:43:40.680Z,27.90
2018-06-19T14:46:13.731Z,27.62
2018-06-19T14:48:47.048Z,28.52
2018-06-19T14:51:19.073Z,28.63
2018-06-19T14:53:51.726Z,27.95
2018-06-19T14:56:24.232Z,28.67
2018-06-19T14:58:56.945Z,28.28
2018-06-19T15:01:28.841Z,28.45
2018-06-19T15:04:02.131Z,28.89
2018-06-19T15:06:34.838Z,29.34
2018-06-19T15:09:10.080Z,29.56
2018-06-19T15:11:43.340Z,29.62
2018-06-19T15:14:16.285Z,28.95
2018-06-19T15:16:48.543Z,29.81
2018-06-19T15:19:21.150Z,29.62
2018-06-19T15:21:54.242Z,30.28
2018-06-19T15:24:27.041Z,31.25
2018-06-19T15:27:00.541Z,29.89
2018-06-19T15:29:33.753Z,30.37
2018-06-19T15:32:06.677Z,30.30
2018-06-19T15:34:39.769Z,31.40
2018-06-19T15:37:11.632Z,30.76
2018-06-19T15:39:44.818Z,31.02
2018-06-19T15:42:17.240Z,31.42
2018-06-19T15:44:50.319Z,32.03
2018-06-19T15:47:23.212Z,31.40
2018-06-19T15:49:56.261Z,30.42
2018-06-19T15:52:28.337Z,30.74
2018-06-19T15:55:01.060Z,29.93
2018-06-19T15:57:33.313Z,29.44
2018-06-19T16:00:05.856Z,29.66
2018-06-19T16:02:38.472Z,29.07
2018-06-19T16:05:11.896Z,29.44
2018-06-19T16:07:48.616Z,29.21
2018-06-19T16:10:21.411Z,28.09
2018-06-19T16:12:53.700Z,28.87
2018-06-19T16:15:26.674Z,28.43
2018-06-19T16:18:00.496Z,27.39
2018-06-19T16:20:32.921Z,29.50
2018-06-19T16:23:05.663Z,28.92
2018-06-19T16:25:37.890Z,29.81
2018-06-19T16:28:11.059Z,27.85
2018-06-19T16:30:44.147Z,29.75
2018-06-19T16:33:16.823Z,29.26
2018-06-19T16:35:50.251Z,29.39
2018-06-19T16:38:23.305Z,29.71
2018-06-19T16:40:56.926Z,29.58
2018-06-19T16:43:29.523Z,30.75
2018-06-19T16:46:01.941Z,30.18
2018-06-19T16:48:34.180Z,30.02
2018-06-19T16:51:06.995Z,30.85
2018-06-19T16:53:42.015Z,29.69
2018-06-19T16:56:16.383Z,30.57
2018-06-19T16:58:49.293Z,30.23
2018-06-19T17:01:22.149Z,30.13
2018-06-19T17:03:55.789Z,30.43
2018-06-19T17:06:28.753Z,29.57
2018-06-19T17:09:01.483Z,30.02
2018-06-19T17:11:34.824Z,31.04
2018-06-19T17:14:07.136Z,31.16
2018-06-19T17:16:40.937Z,29.37
2018-06-19T17:19:13.803Z,30.58
2018-06-19T17:21:46.690Z,30.78
2018-06-19T17:24:19.825Z,30.08
2018-06-19T17:26:52.757Z,30.71
2018-06-19T17:29:25.086Z,32.18
2018-06-19T17:31:58.225Z,31.15
2018-06-19T17:34:31.435Z,30.91
2018-06-19T17:37:04.239Z,30.74
2018-06-19T17:39:36.535Z,31.58
2018-06-19T17:42:09.232Z,31.26
2018-06-19T17:44:41.321Z,31.43
2018-06-19T17:47:13.937Z,31.90
2018-06-19T17:49:46.368Z,31.29
2018-06-19T17:52:19.184Z,31.97
2018-06-19T17:54:52.475Z,31.53
2018-06-19T17:57:25.872Z,32.68
2018-06-19T17:59:58.539Z,32.49
2018-06-19T18:02:31.363Z,32.83
2018-06-19T18:05:03.277Z,32.51
2018-06-19T18:07:35.760Z,32.22
2018-06-19T18:10:08.180Z,32.91
2018-06-19T18:12:42.750Z,32.46
2018-06-19T18:15:14.840Z,32.35
2018-06-19T18:17:50.242Z,31.72
2018-06-19T18:20:23.759Z,31.90
2018-06-19T18:22:57.482Z,31.98
2018-06-19T18:25:30.048Z,31.87
2018-06-19T18:28:02.423Z,32.80
2018-06-19T18:30:34.692Z,32.57
2018-06-19T18:33:08.092Z,32.16
2018-06-19T18:35:40.636Z,31.83
2018-06-19T18:38:13.551Z,32.68
2018-06-19T18:40:46.238Z,32.04
2018-06-19T18:43:19.185Z,32.74
2018-06-19T18:45:51.418Z,31.78
2018-06-19T18:48:24.647Z,33.23
2018-06-19T18:50:57.119Z,33.05
2018-06-19T18:53:30.410Z,32.95
2018-06-19T18:56:02.651Z,32.09
2018-06-19T18:58:35.591Z,32.17
2018-06-19T19:01:08.408Z,31.38
2018-06-19T19:03:40.809Z,31.31
2018-06-19T19:06:13.380Z,31.96
2018-06-19T19:08:45.825Z,31.51
2018-06-19T19:11:18.303Z,31.00
2018-06-19T19:13:51.302Z,31.71
2018-06-19T19:16:28.109Z,32.16
2018-06-19T19:19:01.857Z,32.26
2018-06-19T19:21:34.994Z,31.82
2018-06-19T19:24:07.706Z,31.51
2018-06-19T19:26:44.819Z,32.45
2018-06-19T19:29:22.126Z,31.95
2018-06-19T19:31:55.383Z,32.44
2018-06-19T19:34:27.174Z,32.84
2018-06-19T19:37:04.356Z,32.15
2018-06-19T19:39:37.142Z,32.69
2018-06-19T19:42:09.653Z,32.75
2018-06-19T19:44:42.728Z,31.88
2018-06-19T19:47:18.973Z,32.45
2018-06-19T19:49:51.431Z,32.00
2018-06-19T19:52:24.155Z,32.28
2018-06-19T19:54:57.316Z,32.76
2018-06-19T19:57:34.770Z,32.57
2018-06-19T20:00:08.122Z,31.56
2018-06-19T20:02:41.099Z,32.00
2018-06-19T20:05:14.636Z,32.33
2018-06-19T20:07:47.419Z,32.48
2018-06-19T20:10:19.358Z,32.47
2018-06-19T20:12:52.552Z,31.72
2018-06-19T20:15:25.963Z,33.30
2018-06-19T20:17:58.524Z,32.57
2018-06-19T20:20:32.027Z,31.62
2018-06-19T20:23:04.792Z,31.55
2018-06-19T20:25:37.167Z,32.79
2018-06-19T20:28:09.985Z,32.92
2018-06-19T20:30:42.936Z,32.75
2018-06-19T20:33:15.965Z,32.07
2018-06-19T20:35:49.130Z,32.10
2018-06-19T20:38:22.411Z,32.39
2018-06-19T20:40:55.532Z,31.12
2018-06-19T20:43:27.854Z,32.64
2018-06-19T20:46:00.376Z,31.29
2018-06-19T20:48:32.833Z,31.97
2018-06-19T20:51:05.460Z,31.93
2018-06-19T20:53:38.501Z,32.21
2018-06-19T20:56:11.111Z,32.12
2018-06-19T20:58:43.343Z,31.98
2018-06-19T21:01:16.087Z,31.71
2018-06-19T21:03:48.080Z,31.58
2018-06-19T21:06:20.573Z,31.52
2018-06-19T21:08:52.996Z,31.36
2018-06-19T21:11:25.409Z,31.82
2018-06-19T21:13:57.873Z,32.26
2018-06-19T21:16:30.545Z,31.97
2018-06-19T21:19:03.615Z,31.86
2018-06-19T21:21:36.940Z,31.26
2018-06-19T21:24:10.023Z,32.47
2018-06-19T21:26:43.346Z,32.18
2018-06-19T21:29:16.434Z,32.29
2018-06-19T21:31:48.629Z,31.98
2018-06-19T21:34:21.330Z,32.34
2018-06-19T21:36:54.050Z,31.87
2018-06-19T21:39:26.017Z,32.85
2018-06-19T21:41:58.698Z,32.69
2018-06-19T21:44:30.670Z,33.47
2018-06-19T21:47:03.835Z,33.02
2018-06-19T21:49:36.570Z,33.66
2018-06-19T21:52:09.570Z,33.76
2018-06-19T21:54:42.760Z,32.67
2018-06-19T21:57:15.953Z,32.68
2018-06-19T21:59:49.127Z,33.42
2018-06-19T22:02:26.959Z,32.72
2018-06-19T22:04:59.496Z,32.51
2018-06-19T22:07:32.811Z,33.12
2018-06-19T22:10:05.923Z,33.52
2018-06-19T22:12:38.763Z,33.22
2018-06-19T22:15:10.824Z,32.14
2018-06-19T22:17:44.073Z,32.59
2018-06-19T22:20:17.512Z,32.49
2018-06-19T22:22:51.379Z,32.45
2018-06-19T22:25:23.292Z,33.63
2018-06-19T22:27:55.699Z,33.64
2018-06-19T22:30:28.366Z,32.78
2018-06-19T22:33:01.954Z,33.11
2018-06-19T22:35:34.232Z,33.55
2018-06-19T22:38:07.382Z,32.46
2018-06-19T22:40:40.344Z,32.65
2018-06-19T22:43:13.095Z,32.90
2018-06-19T22:45:46.254Z,34.13
2018-06-19T22:48:19.415Z,34.18
2018-06-19T22:50:52.385Z,33.80
2018-06-19T22:53:25.508Z,33.23
2018-06-19T22:55:58.264Z,32.67
2018-06-19T22:58:30.729Z,33.12
2018-06-19T23:01:03.756Z,32.56
2018-06-19T23:03:36.176Z,32.93
2018-06-19T23:06:09.155Z,32.55
2018-06-19T23:08:41.418Z,31.87
2018-06-19T23:11:13.623Z,31.65
2018-06-19T23:13:46.234Z,31.81
2018-06-19T23:16:19.317Z,32.56
2018-06-19T23:18:52.142Z,32.55
2018-06-19T23:21:24.386Z,32.73
2018-06-19T23:23:57.097Z,33.84
2018-06-19T23:26:29.314Z,33.95
2018-06-19T23:29:02.892Z,34.35
2018-06-19T23:31:35.647Z,33.09
2018-06-19T23:34:08.718Z,33.36
2018-06-19T23:36:42.657Z,33.95
2018-06-19T23:39:15.855Z,34.09
2018-06-19T23:41:48.174Z,33.46
2018-06-19T23:44:20.844Z,33.79
2018-06-19T23:46:53.445Z,33.24
2018-06-19T23:49:25.994Z,33.70
2018-06-19T23:51:59.649Z,33.72
2018-06-19T23:54:32.534Z,33.35
2018-06-19T23:57:04.699Z,33.43
2018-06-19T23:59:37.507Z,33.49
